Tarnow, Poland

6:43 PM CEST on August 21, 2014 (GMT +0200)
Tarnow | Change Station
CLOSE
Current Station
Personal Weather Station
Location: Moscice, MALOPOLSKA
Elevation: 643 ft
Nearby Weather Stations

Elev 643 ft 50.01 °N, 20.93 °E | Updated 15 seconds ago

Partly Cloudy
Partly Cloudy
57.9 °F
Feels Like 57.9 °F
N
1.2
Wind Variable Wind from WSW
Gusts 1.2 mph

Today
High -- | Low -- °F
--% Chance of Precip.
Yesterday
High -- | Low -- °F
Precip. -- in
5:34 AM 7:43 PM
Waning Crescent, 13% visible
Pressure 30.04 in
Visibility 6.2 miles
Clouds Few 1300 ft
Few 2300 ft
Dew Point 53 °F
Humidity 85%
Rainfall 0.93 in
Snow Depth Not available.
UV 0 out of 12
Pollen Not available.
Air Quality Not available.
Flu Activity Not available.
METAR EPRZ 211630Z 33004KT 9999 FEW013 FEW023CB 13/11 Q1017

More Conditions Fewer Conditions

Pressure 30.04 in
Visibility 6.2 miles
Clouds Few 1300 ft
Few 2300 ft
Dew Point 53 °F
Humidity 85%
Rainfall 0.93 in
Snow Depth Not available.
UV 0 out of 12
Pollen Not available.
Air Quality Not available.
Flu Activity Not available.
METAR EPRZ 211630Z 33004KT 9999 FEW013 FEW023CB 13/11 Q1017

More Conditions Fewer Conditions

10-Day Weather Forecast

Almanac

Astronomy

Aug. 21, 2014 Rise Set
Actual Time 5:34 AM CEST 7:43 PM CEST
Civil Twilight 4:59 AM CEST 8:18 PM CEST
Nautical Twilight 4:15 AM CEST 9:01 PM CEST
Astronomical Twilight 3:25 AM CEST 9:51 PM CEST
Moon 1:38 AM CEST 5:08 PM CEST
Length of Visible Light 15h 19m
Length of Day
14h 09m
Tomorrow will be 3m 30s shorter.
Waning Crescent, 13% of the Moon is Illuminated
Today
Waning Crescent
Aug 25
New
Sep 2
First Quarter
Sep 8
Full
Sep 15
Last Quarter

Today's Extremes

Country Highs Country Lows

Community

WunderPhotos

Upload Photos

1,745,957 photos uploaded!

Nearby

Snow Depth

Not available.

Earthquake Activity

City Distance Mag. Time & Date
No recent earthquake activity has been reported nearby.
Minimum magnitude displayed is 2.5.

Coastal Water Temperatures

Place Temperature
No Stations Reporting

Nearby Weather Stations